Time;durP1;ratioP1;P1;durP2;ratioP2;P2;SDS_P1;SDS_P2;PMS_P1;PMS_P2;Temp;Humidity;BMP_temperature;BMP_pressure;BME280_temperature;BME280_humidity;BME280_pressure;Samples;Min_cycle;Max_cycle;Signal;HPM_P1;HPM_P2
2024/04/02 00:00:33;;;;;;;2.27;0.50;;;;;;;11.08;89.66;99393.13;5052618;28;20518;-68
2024/04/02 00:03:00;;;;;;;2.20;0.50;;;;;;;11.12;88.46;99385.13;5054661;28;20226;-68
2024/04/02 00:05:28;;;;;;;2.20;0.40;;;;;;;11.13;87.57;99388.63;5054771;28;20935;-69
2024/04/02 00:07:53;;;;;;;2.37;0.90;;;;;;;11.08;87.26;99386.91;5054452;28;20797;-68
2024/04/02 00:10:20;;;;;;;2.13;0.40;;;;;;;11.11;87.18;99392.47;5054178;28;20478;-68
2024/04/02 00:12:45;;;;;;;2.20;0.60;;;;;;;11.13;85.48;99400.25;5048122;28;20216;-69
2024/04/02 00:15:13;;;;;;;2.20;0.40;;;;;;;11.17;84.62;99401.19;5054220;28;20909;-69
2024/04/02 00:17:38;;;;;;;2.30;0.60;;;;;;;11.19;82.98;99393.50;5054642;28;20200;-69
2024/04/02 00:20:06;;;;;;;2.20;0.60;;;;;;;11.18;81.74;99399.25;5054476;28;20862;-68
2024/04/02 00:22:33;;;;;;;2.10;0.30;;;;;;;11.23;80.10;99399.81;5047827;28;20742;-69
2024/04/02 00:25:00;;;;;;;2.10;0.30;;;;;;;11.32;78.37;99397.03;5054618;28;20442;-69
2024/04/02 00:27:27;;;;;;;2.17;0.37;;;;;;;11.32;78.29;99397.03;5053709;28;20915;-68
2024/04/02 00:29:53;;;;;;;2.33;0.70;;;;;;;11.38;77.05;99398.41;5053008;28;20498;-68
2024/04/02 00:32:19;;;;;;;2.50;0.60;;;;;;;11.44;76.59;99404.41;5052164;28;20533;-69
2024/04/02 00:34:46;;;;;;;2.20;0.40;;;;;;;11.50;75.68;99401.13;5051957;28;20989;-69
2024/04/02 00:37:11;;;;;;;2.10;0.30;;;;;;;11.50;75.43;99403.06;5054498;28;20291;-70
2024/04/02 00:39:40;;;;;;;2.43;0.60;;;;;;;11.56;75.57;99407.16;5054453;28;20526;-69
2024/04/02 00:42:05;;;;;;;2.30;0.50;;;;;;;11.57;76.27;99406.03;5053704;28;20225;-69
2024/04/02 00:44:34;;;;;;;2.10;0.30;;;;;;;11.56;76.99;99399.81;5046510;28;21025;-69
2024/04/02 00:47:00;;;;;;;2.30;0.40;;;;;;;11.57;77.97;99414.94;5053331;28;20739;-69
2024/04/02 00:49:27;;;;;;;2.10;0.30;;;;;;;11.57;78.75;99406.03;5054344;28;20525;-69
2024/04/02 00:51:53;;;;;;;2.20;0.40;;;;;;;11.61;79.31;99405.00;5053823;28;20255;-69
2024/04/02 00:54:20;;;;;;;2.30;0.50;;;;;;;11.63;79.52;99420.94;5052305;28;20876;-69
2024/04/02 00:56:47;;;;;;;2.23;0.50;;;;;;;11.68;79.66;99423.44;5048126;28;20286;-68
2024/04/02 00:59:14;;;;;;;2.30;0.50;;;;;;;11.66;80.17;99422.97;5053990;28;20470;-68
2024/04/02 01:01:40;;;;;;;3.17;1.07;;;;;;;11.61;80.97;99436.78;5053338;28;20934;-68
2024/04/02 01:04:07;;;;;;;2.20;0.50;;;;;;;11.56;82.14;99443.19;5051474;28;20463;-68
2024/04/02 01:06:34;;;;;;;2.70;0.50;;;;;;;11.59;82.23;99444.44;5040500;28;20287;-68
2024/04/02 01:09:00;;;;;;;2.13;0.30;;;;;;;11.54;83.14;99439.22;5050247;28;20513;-68
2024/04/02 01:11:27;;;;;;;2.20;0.50;;;;;;;11.44;84.24;99431.53;5053619;28;20525;-68
2024/04/02 01:13:55;;;;;;;2.50;0.77;;;;;;;11.46;84.21;99431.97;5053414;28;20883;-68
2024/04/02 01:16:21;;;;;;;2.17;0.40;;;;;;;11.44;83.97;99432.31;5051851;28;20458;-68
2024/04/02 01:18:48;;;;;;;2.17;0.30;;;;;;;11.41;84.10;99427.56;5053572;28;20443;-69
2024/04/02 01:21:14;;;;;;;2.27;0.57;;;;;;;11.42;84.68;99429.16;5053231;28;20440;-68
2024/04/02 01:23:40;;;;;;;2.23;0.57;;;;;;;11.38;84.76;99425.53;5053377;28;20485;-68
2024/04/02 01:26:07;;;;;;;2.20;0.40;;;;;;;11.34;84.39;99433.53;5052650;28;20496;-68
2024/04/02 01:28:34;;;;;;;2.47;0.70;;;;;;;11.31;84.30;99426.06;5055832;22;20534;-66
2024/04/02 01:31:02;;;;;;;2.30;0.50;;;;;;;11.24;85.16;99428.50;5037254;28;20514;-65
2024/04/02 01:33:29;;;;;;;2.50;0.60;;;;;;;11.19;85.14;99436.06;5037896;28;20463;-65
2024/04/02 01:35:54;;;;;;;2.10;0.40;;;;;;;11.19;85.17;99434.16;5032372;28;20439;-65
2024/04/02 01:38:21;;;;;;;2.20;0.40;;;;;;;11.15;85.24;99433.22;5026401;28;20519;-65
2024/04/02 01:40:47;;;;;;;2.10;0.30;;;;;;;11.09;85.56;99440.78;5030594;28;20268;-65
2024/04/02 01:43:15;;;;;;;2.40;0.60;;;;;;;11.08;86.06;99439.19;5035056;28;20534;-65
2024/04/02 01:45:41;;;;;;;2.10;0.30;;;;;;;11.07;85.77;99453.09;5032436;28;20297;-65
2024/04/02 01:48:08;;;;;;;2.30;0.50;;;;;;;11.03;85.84;99450.25;5023117;28;20984;-64
2024/04/02 01:50:33;;;;;;;2.10;0.30;;;;;;;11.01;86.39;99454.41;5034477;28;20219;-66
2024/04/02 01:53:00;;;;;;;2.20;0.40;;;;;;;10.96;86.75;99449.19;5022343;28;20461;-64
2024/04/02 01:55:25;;;;;;;2.33;0.60;;;;;;;10.93;86.56;99444.41;5020403;28;20205;-64
2024/04/02 01:57:52;;;;;;;2.17;0.40;;;;;;;10.91;86.72;99452.09;5031516;28;20522;-65
2024/04/02 02:00:20;;;;;;;2.10;0.40;;;;;;;10.84;87.28;99453.41;5032423;28;20279;-64
2024/04/02 02:02:46;;;;;;;3.37;0.50;;;;;;;10.77;87.43;99464.00;5037491;28;20475;-64
2024/04/02 02:05:12;;;;;;;2.20;0.40;;;;;;;10.71;88.13;99462.59;5032016;28;20451;-64
2024/04/02 02:07:38;;;;;;;2.17;0.40;;;;;;;10.69;88.53;99464.84;5030688;28;20526;-64
2024/04/02 02:10:04;;;;;;;2.10;0.30;;;;;;;10.62;89.11;99467.25;5027196;28;20201;-64
2024/04/02 02:12:32;;;;;;;2.20;0.50;;;;;;;10.59;88.93;99468.72;5026447;28;20475;-64
2024/04/02 02:14:58;;;;;;;2.37;0.73;;;;;;;10.53;89.28;99466.53;5031685;28;20530;-64
2024/04/02 02:17:26;;;;;;;2.10;0.37;;;;;;;10.56;89.26;99471.28;5030825;28;21006;-64
2024/04/02 02:19:51;;;;;;;2.30;0.40;;;;;;;10.51;89.62;99472.28;5025216;28;20285;-64
2024/04/02 02:22:20;;;;;;;2.10;0.30;;;;;;;10.45;89.99;99472.81;5036198;28;20649;-64
2024/04/02 02:24:45;;;;;;;2.17;0.30;;;;;;;10.46;90.08;99477.09;5036871;28;20569;-64
2024/04/02 02:27:12;;;;;;;2.30;0.47;;;;;;;10.44;90.56;99482.03;5033160;28;20443;-65
2024/04/02 02:29:38;;;;;;;2.10;0.30;;;;;;;10.41;90.53;99482.72;5028086;28;20265;-65
2024/04/02 02:32:04;;;;;;;2.17;0.40;;;;;;;10.40;90.93;99483.81;5017912;28;20476;-64
2024/04/02 02:34:31;;;;;;;2.27;0.50;;;;;;;10.37;90.96;99484.47;5017059;28;20209;-65
2024/04/02 02:36:58;;;;;;;2.30;0.70;;;;;;;10.31;91.40;99479.25;5016486;28;20440;-64
2024/04/02 02:39:24;;;;;;;2.13;0.30;;;;;;;10.29;91.59;99477.97;5023920;28;20467;-65
2024/04/02 02:41:50;;;;;;;2.10;0.30;;;;;;;10.28;91.96;99481.81;5028338;28;20467;-65
2024/04/02 02:44:16;;;;;;;2.10;0.30;;;;;;;10.26;92.23;99487.53;5036656;28;20635;-64
2024/04/02 02:46:42;;;;;;;2.13;0.40;;;;;;;10.27;92.42;99488.31;5036357;28;20519;-65
2024/04/02 02:49:08;;;;;;;2.20;0.40;;;;;;;10.23;92.42;99485.47;5034618;28;20197;-64
2024/04/02 02:51:36;;;;;;;2.20;0.40;;;;;;;10.23;93.08;99477.34;5026680;28;21085;-65
2024/04/02 02:54:03;;;;;;;2.60;1.00;;;;;;;10.28;92.37;99479.91;5030919;28;20244;-64
2024/04/02 02:56:29;;;;;;;2.10;0.30;;;;;;;10.24;92.69;99475.44;5027275;28;20492;-64
2024/04/02 02:58:55;;;;;;;2.17;0.40;;;;;;;10.26;92.37;99482.13;5028663;28;20440;-64
2024/04/02 03:01:22;;;;;;;2.10;0.40;;;;;;;10.23;92.41;99482.75;5028679;28;20435;-64
2024/04/02 03:03:48;;;;;;;2.20;0.40;;;;;;;10.20;93.19;99482.63;5035107;28;20657;-65
2024/04/02 03:06:14;;;;;;;2.10;0.30;;;;;;;10.21;92.79;99479.56;5035983;28;20478;-65
2024/04/02 03:08:41;;;;;;;2.10;0.30;;;;;;;10.20;93.26;99488.81;5031320;28;20938;-65
2024/04/02 03:11:09;;;;;;;2.10;0.30;;;;;;;10.25;92.76;99485.94;5027484;28;20568;-65
2024/04/02 03:13:35;;;;;;;2.20;0.40;;;;;;;10.28;92.97;99490.72;5020245;28;20889;-65
2024/04/02 03:16:01;;;;;;;2.17;0.40;;;;;;;10.34;92.84;99494.81;5027228;28;20435;-65
2024/04/02 03:18:27;;;;;;;2.17;0.30;;;;;;;10.38;92.32;99496.88;5035251;28;20501;-65
2024/04/02 03:20:54;;;;;;;2.30;0.47;;;;;;;10.39;92.71;99499.25;5032916;28;20435;-65
2024/04/02 03:23:20;;;;;;;2.10;0.30;;;;;;;10.38;92.28;99497.69;5018826;28;20251;-65
2024/04/02 03:25:54;;;;;;;2.10;0.30;;;;;;;10.40;92.18;99505.47;5038585;28;20454;-65
2024/04/02 03:28:19;;;;;;;2.13;0.37;;;;;;;10.41;92.15;99493.53;5015479;28;20637;-65
2024/04/02 03:30:46;;;;;;;2.10;0.40;;;;;;;10.41;92.22;99505.16;5016468;28;20488;-65
2024/04/02 03:33:12;;;;;;;2.20;0.40;;;;;;;10.46;92.24;99499.53;5025086;28;20308;-65
2024/04/02 03:35:38;;;;;;;2.20;0.40;;;;;;;10.46;92.10;99512.28;5017413;28;21044;-65
2024/04/02 03:38:05;;;;;;;2.10;0.30;;;;;;;10.45;92.68;99518.84;5022099;28;20201;-65
2024/04/02 03:40:36;;;;;;;2.20;0.50;;;;;;;10.46;92.42;99518.50;5029509;28;20444;-65
2024/04/02 03:43:05;;;;;;;2.10;0.30;;;;;;;10.45;92.68;99511.50;5023769;28;20440;-66
2024/04/02 03:45:31;;;;;;;2.20;0.50;;;;;;;10.49;93.24;99514.31;5019155;28;20439;-65
2024/04/02 03:47:57;;;;;;;2.70;0.57;;;;;;;10.50;92.77;99505.91;5030628;28;20451;-65
2024/04/02 03:50:24;;;;;;;2.10;0.30;;;;;;;10.53;92.45;99502.50;5033518;28;20435;-65
2024/04/02 03:52:49;;;;;;;2.10;0.33;;;;;;;10.51;92.71;99514.81;5024302;28;20217;-65
2024/04/02 03:55:16;;;;;;;2.10;0.40;;;;;;;10.47;92.89;99513.88;5015673;28;20521;-65
2024/04/02 03:57:43;;;;;;;2.10;0.40;;;;;;;10.48;93.16;99508.13;5020291;28;20795;-65
2024/04/02 04:00:11;;;;;;;2.10;0.40;;;;;;;10.50;93.21;99514.03;5033949;28;20791;-65
2024/04/02 04:02:37;;;;;;;2.10;0.30;;;;;;;10.49;93.66;99509.72;5033430;28;20451;-65
2024/04/02 04:05:04;;;;;;;2.50;0.70;;;;;;;10.48;93.52;99526.28;5017156;28;20498;-65
2024/04/02 04:07:30;;;;;;;2.10;0.40;;;;;;;10.51;93.34;99520.22;5015481;28;20196;-65
2024/04/02 04:09:57;;;;;;;2.17;0.37;;;;;;;10.45;94.23;99526.97;5021509;28;20431;-65
2024/04/02 04:12:23;;;;;;;2.40;0.53;;;;;;;10.45;93.88;99535.88;5034316;28;20487;-65
2024/04/02 04:14:50;;;;;;;2.30;0.47;;;;;;;10.35;94.64;99528.09;5042805;28;20931;-65
2024/04/02 04:17:18;;;;;;;2.10;0.30;;;;;;;10.31;94.79;99537.97;5034133;28;20511;-65
2024/04/02 04:19:44;;;;;;;2.20;0.50;;;;;;;10.29;95.26;99534.81;5029916;28;20470;-65
2024/04/02 04:22:11;;;;;;;2.20;0.40;;;;;;;10.26;95.46;99538.94;5029387;28;20459;-65
2024/04/02 04:24:36;;;;;;;2.20;0.50;;;;;;;10.24;95.87;99552.03;5021041;28;20201;-65
2024/04/02 04:27:03;;;;;;;2.10;0.30;;;;;;;10.26;95.85;99557.91;5014347;28;20454;-65
2024/04/02 04:29:28;;;;;;;2.10;0.30;;;;;;;10.27;96.04;99559.50;5027061;28;20200;-65
2024/04/02 04:31:55;;;;;;;2.20;0.50;;;;;;;10.27;96.34;99556.81;5018053;28;20570;-65
2024/04/02 04:34:22;;;;;;;2.20;0.50;;;;;;;10.31;96.12;99563.16;5034922;28;20307;-65
2024/04/02 04:36:49;;;;;;;2.10;0.30;;;;;;;10.33;96.19;99568.22;5027632;28;20442;-65
2024/04/02 04:39:14;;;;;;;2.93;0.50;;;;;;;10.35;96.08;99564.06;5025740;28;20879;-65
2024/04/02 04:41:41;;;;;;;2.10;0.40;;;;;;;10.43;96.01;99564.38;5028164;28;20463;-65
2024/04/02 04:44:07;;;;;;;2.10;0.30;;;;;;;10.42;95.88;99566.28;5033071;28;20224;-65
2024/04/02 04:46:33;;;;;;;2.10;0.40;;;;;;;10.45;95.81;99565.66;5033188;28;20470;-65
2024/04/02 04:48:59;;;;;;;2.10;0.30;;;;;;;10.42;96.33;99570.91;5029439;28;20276;-65
2024/04/02 04:51:27;;;;;;;2.10;0.30;;;;;;;10.38;97.00;99565.34;5032768;28;20573;-65
2024/04/02 04:53:52;;;;;;;2.10;0.37;;;;;;;10.41;96.95;99561.22;5053332;28;20219;-65
2024/04/02 04:56:20;;;;;;;2.90;0.90;;;;;;;10.46;96.37;99561.81;5035704;28;20443;-65
2024/04/02 04:58:46;;;;;;;2.20;0.40;;;;;;;10.43;96.26;99557.03;5014707;28;20296;-65
2024/04/02 05:01:14;;;;;;;2.10;0.30;;;;;;;10.41;96.73;99558.50;5014024;28;20530;-65
2024/04/02 05:03:39;;;;;;;3.07;0.87;;;;;;;10.39;96.67;99549.91;5025762;28;20250;-65
2024/04/02 05:06:07;;;;;;;2.30;0.70;;;;;;;10.43;96.67;99551.63;5032226;28;20841;-65
2024/04/02 05:08:35;;;;;;;2.13;0.50;;;;;;;10.41;96.48;99555.78;5024129;28;20203;-65
2024/04/02 05:11:03;;;;;;;2.10;0.30;;;;;;;10.35;97.00;99545.13;5031402;28;20486;-65
2024/04/02 05:13:30;;;;;;;2.30;0.63;;;;;;;10.29;97.05;99554.56;5033908;28;20466;-65
2024/04/02 05:15:57;;;;;;;2.10;0.40;;;;;;;10.33;97.19;99552.00;5033627;28;20543;-65
2024/04/02 05:18:22;;;;;;;2.40;0.70;;;;;;;10.30;97.29;99564.25;5032653;28;20482;-65
2024/04/02 05:20:49;;;;;;;2.97;0.57;;;;;;;10.35;97.20;99564.06;5034275;28;20538;-65
2024/04/02 05:23:15;;;;;;;2.93;0.70;;;;;;;10.38;96.97;99570.75;5032481;28;20216;-65
2024/04/02 05:25:43;;;;;;;2.10;0.30;;;;;;;10.31;97.66;99571.28;5024834;28;20535;-65
2024/04/02 05:28:09;;;;;;;2.30;0.67;;;;;;;10.38;97.60;99575.38;5033099;28;20490;-65
2024/04/02 05:30:36;;;;;;;2.13;0.40;;;;;;;10.39;97.23;99576.97;5020610;28;20478;-65
2024/04/02 05:33:03;;;;;;;2.17;0.40;;;;;;;10.40;97.02;99582.03;5033297;28;20220;-65
2024/04/02 05:35:29;;;;;;;2.10;0.40;;;;;;;10.34;97.50;99581.44;5032825;28;20458;-65
2024/04/02 05:37:56;;;;;;;2.17;0.40;;;;;;;10.41;97.78;99593.69;5019043;28;20797;-64
2024/04/02 05:40:22;;;;;;;3.13;1.13;;;;;;;10.44;97.00;99601.16;5029666;28;20463;-64
2024/04/02 05:42:50;;;;;;;2.50;0.60;;;;;;;10.49;96.62;99598.25;5028327;28;20542;-64
2024/04/02 05:45:16;;;;;;;2.30;0.60;;;;;;;10.52;96.39;99592.19;5032933;28;20498;-64
2024/04/02 05:47:45;;;;;;;2.10;0.40;;;;;;;10.53;96.09;99599.19;5033108;28;20443;-64
2024/04/02 05:50:11;;;;;;;2.10;0.30;;;;;;;10.55;96.14;99600.47;5031020;28;20474;-64
2024/04/02 05:52:37;;;;;;;2.10;0.30;;;;;;;10.53;96.28;99604.63;5018927;28;20567;-65
2024/04/02 05:55:04;;;;;;;2.10;0.53;;;;;;;10.58;96.08;99597.13;5013441;28;20949;-65
2024/04/02 05:57:30;;;;;;;4.90;0.50;;;;;;;10.59;95.96;99598.72;5017454;28;20431;-65
2024/04/02 05:59:57;;;;;;;3.70;1.00;;;;;;;10.63;96.07;99596.16;5033610;28;20530;-65
2024/04/02 06:02:24;;;;;;;2.37;0.60;;;;;;;10.67;95.70;99599.78;5030855;28;20826;-65
2024/04/02 06:04:50;;;;;;;2.30;0.60;;;;;;;10.73;95.39;99594.97;5027257;28;20440;-65
2024/04/02 06:07:16;;;;;;;2.20;0.50;;;;;;;10.79;94.90;99594.47;5018918;28;20527;-66
2024/04/02 06:09:42;;;;;;;4.33;1.17;;;;;;;10.77;94.81;99590.50;5022720;28;20222;-67
2024/04/02 06:12:09;;;;;;;2.30;0.60;;;;;;;10.78;95.18;99601.00;5019670;28;20472;-65
2024/04/02 06:14:34;;;;;;;2.10;0.30;;;;;;;10.85;94.88;99585.03;5018452;28;20254;-65
2024/04/02 06:17:03;;;;;;;2.67;0.77;;;;;;;10.91;93.86;99568.59;5033443;28;20443;-65
2024/04/02 06:19:31;;;;;;;2.23;0.70;;;;;;;10.99;93.89;99573.16;5037232;28;20196;-65
2024/04/02 06:21:58;;;;;;;2.60;0.67;;;;;;;11.04;93.16;99570.25;5023123;28;20501;-65
2024/04/02 06:24:24;;;;;;;2.47;0.70;;;;;;;11.06;93.05;99573.44;5013164;28;20475;-64
2024/04/02 06:26:51;;;;;;;2.50;0.80;;;;;;;11.08;93.09;99569.28;5031045;28;20522;-66
2024/04/02 06:29:16;;;;;;;2.10;0.40;;;;;;;11.14;92.57;99582.63;5036581;28;20240;-65
2024/04/02 06:31:44;;;;;;;2.10;0.40;;;;;;;11.23;92.03;99578.72;5035385;28;21011;-65
2024/04/02 06:34:11;;;;;;;2.37;0.90;;;;;;;11.33;91.24;99578.34;5027966;28;20217;-64
2024/04/02 06:36:38;;;;;;;2.20;0.40;;;;;;;11.44;90.59;99584.16;5025534;28;20826;-64
2024/04/02 06:39:04;;;;;;;2.20;0.80;;;;;;;11.44;90.07;99572.53;5022450;28;20439;-65
2024/04/02 06:41:30;;;;;;;2.27;0.50;;;;;;;11.45;90.32;99582.25;5036234;28;20431;-65
2024/04/02 06:43:56;;;;;;;2.20;0.50;;;;;;;11.45;90.37;99580.31;5033226;28;20216;-64
2024/04/02 06:46:24;;;;;;;2.20;0.50;;;;;;;11.56;89.11;99575.31;5036145;28;20593;-65
2024/04/02 06:48:49;;;;;;;2.93;0.53;;;;;;;11.58;88.83;99589.31;5034801;28;20212;-65
2024/04/02 06:51:18;;;;;;;2.53;0.77;;;;;;;11.54;89.25;99589.19;5031606;28;20478;-65
2024/04/02 06:53:44;;;;;;;2.40;0.60;;;;;;;11.61;88.58;99588.66;5034013;28;20687;-65
2024/04/02 06:56:11;;;;;;;2.23;0.63;;;;;;;11.69;88.03;99595.94;5025747;28;20435;-66
2024/04/02 06:58:37;;;;;;;2.33;0.60;;;;;;;11.72;87.88;99595.25;5037686;28;20440;-66
2024/04/02 07:01:04;;;;;;;2.30;0.60;;;;;;;11.82;87.83;99603.03;5033604;28;22001;-67
2024/04/02 07:03:30;;;;;;;2.20;0.67;;;;;;;11.92;86.81;99626.22;5043009;28;20510;-65
2024/04/02 07:05:56;;;;;;;2.53;0.70;;;;;;;11.94;86.66;99604.19;5031995;28;20490;-66
2024/04/02 07:08:25;;;;;;;2.80;1.13;;;;;;;11.99;86.52;99598.53;5022629;28;20197;-66
2024/04/02 07:10:59;;;;;;;2.63;0.70;;;;;;;12.05;85.42;99614.28;5021843;28;20454;-66
2024/04/02 07:13:25;;;;;;;2.20;0.50;;;;;;;12.08;85.23;99610.09;5030829;28;20448;-64
2024/04/02 07:15:52;;;;;;;2.10;0.40;;;;;;;12.10;84.43;99607.88;5031461;28;20431;-65
2024/04/02 07:18:18;;;;;;;4.00;1.03;;;;;;;12.06;85.30;99612.38;5027505;28;20432;-65
2024/04/02 07:20:45;;;;;;;2.60;0.70;;;;;;;12.18;85.25;99617.84;5020432;28;20570;-66
2024/04/02 07:23:10;;;;;;;2.30;0.60;;;;;;;12.28;83.57;99617.41;5030875;28;20666;-65
2024/04/02 07:25:38;;;;;;;2.30;0.70;;;;;;;12.29;82.79;99634.50;5024857;28;20498;-66
2024/04/02 07:28:04;;;;;;;2.30;0.67;;;;;;;12.34;82.31;99632.34;5035047;23;21410;-69
2024/04/02 07:30:30;;;;;;;2.60;0.70;;;;;;;12.34;82.37;99632.34;5054463;28;20502;-68
2024/04/02 07:32:56;;;;;;;2.30;0.57;;;;;;;12.38;81.72;99633.25;5054560;28;20216;-68
2024/04/02 07:35:23;;;;;;;2.10;0.40;;;;;;;12.48;81.80;99642.09;5054369;28;20522;-67
2024/04/02 07:37:48;;;;;;;2.13;0.40;;;;;;;12.57;81.52;99640.91;5055073;28;20234;-67
2024/04/02 07:40:15;;;;;;;2.10;0.37;;;;;;;12.69;80.53;99650.97;5054406;28;20478;-67
2024/04/02 07:42:42;;;;;;;2.27;0.47;;;;;;;12.69;79.25;99664.56;5054600;28;20219;-68
2024/04/02 07:45:09;;;;;;;3.13;1.37;;;;;;;12.74;79.09;99661.63;5053894;28;20442;-68
2024/04/02 07:47:34;;;;;;;2.30;0.57;;;;;;;12.71;78.36;99667.75;5053241;28;20818;-69
2024/04/02 07:50:03;;;;;;;2.83;0.70;;;;;;;12.71;78.51;99675.91;5057623;28;20513;-69
2024/04/02 07:52:29;;;;;;;2.20;0.50;;;;;;;12.65;78.87;99674.50;5064570;28;20285;-69
2024/04/02 07:54:55;;;;;;;2.30;0.40;;;;;;;12.68;79.50;99678.50;5055449;28;20942;-70
2024/04/02 07:57:21;;;;;;;2.17;0.50;;;;;;;12.70;78.61;99677.00;5054401;28;20284;-69
2024/04/02 07:59:49;;;;;;;2.70;0.53;;;;;;;12.73;78.82;99676.34;5054499;28;20525;-68
2024/04/02 08:02:14;;;;;;;2.10;0.40;;;;;;;12.81;78.08;99680.88;5054430;28;20219;-69
2024/04/02 08:04:41;;;;;;;3.53;1.40;;;;;;;12.81;77.86;99680.88;5054405;28;20522;-69
2024/04/02 08:07:06;;;;;;;2.20;0.40;;;;;;;12.85;78.13;99700.81;5055120;28;20249;-69
2024/04/02 08:09:33;;;;;;;2.33;0.60;;;;;;;12.77;79.02;99696.28;5055915;28;20958;-69
2024/04/02 08:11:59;;;;;;;2.20;0.50;;;;;;;12.90;78.56;99688.13;5053850;28;20226;-69
2024/04/02 08:14:31;;;;;;;2.77;0.73;;;;;;;12.98;78.57;99692.69;5052439;28;20859;-69
2024/04/02 08:16:58;;;;;;;2.50;0.63;;;;;;;13.08;77.50;99695.75;5052697;28;20199;-68
2024/04/02 08:19:25;;;;;;;2.30;0.50;;;;;;;13.21;78.06;99695.75;5052653;28;20484;-68
2024/04/02 08:21:51;;;;;;;2.40;0.40;;;;;;;13.41;77.79;99699.50;5053787;28;20518;-68
2024/04/02 08:24:17;;;;;;;2.23;0.43;;;;;;;13.53;74.99;99703.00;5057201;28;20878;-70
2024/04/02 08:26:43;;;;;;;2.47;0.77;;;;;;;13.53;74.52;99702.19;5053831;28;20282;-70
2024/04/02 08:29:09;;;;;;;2.30;0.50;;;;;;;13.55;74.63;99711.63;5053302;28;21030;-69
2024/04/02 08:31:35;;;;;;;2.37;0.60;;;;;;;13.58;73.53;99708.19;5054361;28;20219;-69
2024/04/02 08:34:03;;;;;;;2.17;0.40;;;;;;;13.59;73.86;99722.59;5053480;28;20929;-69
2024/04/02 08:36:29;;;;;;;2.50;0.70;;;;;;;13.68;74.70;99703.41;5055622;28;20196;-70
2024/04/02 08:38:56;;;;;;;2.20;0.47;;;;;;;13.72;72.48;99709.75;5053735;28;20445;-70
2024/04/02 08:41:26;;;;;;;2.10;0.30;;;;;;;13.63;72.42;99702.53;5055000;28;20196;-69
2024/04/02 08:43:57;;;;;;;2.10;0.40;;;;;;;13.66;72.79;99711.13;5055072;28;20782;-69
2024/04/02 08:46:23;;;;;;;2.20;0.40;;;;;;;13.69;72.66;99711.25;5054176;28;20419;-69
2024/04/02 08:48:52;;;;;;;2.10;0.40;;;;;;;13.72;72.08;99716.00;5053283;28;20446;-69
2024/04/02 08:51:20;;;;;;;2.20;0.37;;;;;;;13.70;71.36;99723.72;5054436;28;20441;-69
2024/04/02 08:53:46;;;;;;;2.13;0.30;;;;;;;13.68;71.10;99717.03;5053475;28;20465;-69
2024/04/02 08:56:14;;;;;;;2.10;0.30;;;;;;;13.52;72.67;99715.00;5053021;28;20455;-69
2024/04/02 08:58:41;;;;;;;2.30;0.50;;;;;;;13.49;72.76;99717.63;5054850;28;20436;-69
2024/04/02 09:01:07;;;;;;;2.10;0.30;;;;;;;13.43;72.46;99724.44;5050441;28;20910;-69
2024/04/02 09:03:35;;;;;;;2.27;0.50;;;;;;;13.32;73.85;99724.09;5052240;28;20552;-70
2024/04/02 09:06:02;;;;;;;2.17;0.37;;;;;;;13.37;73.37;99721.94;5052961;28;20672;-70
2024/04/02 09:08:30;;;;;;;2.10;0.30;;;;;;;13.59;73.79;99728.03;5052348;28;20456;-70
2024/04/02 09:10:56;;;;;;;2.17;0.43;;;;;;;13.87;72.55;99737.06;5053480;28;20458;-70
2024/04/02 09:13:22;;;;;;;2.10;0.40;;;;;;;14.06;71.49;99730.22;5052686;28;20565;-69
2024/04/02 09:15:48;;;;;;;2.20;0.50;;;;;;;14.22;70.41;99727.56;5053184;28;20206;-69
2024/04/02 09:18:15;;;;;;;3.07;0.60;;;;;;;14.33;69.73;99734.88;5052124;28;20885;-70
2024/04/02 09:20:41;;;;;;;2.20;0.40;;;;;;;14.41;70.07;99741.31;5048180;28;20224;-69
2024/04/02 09:23:07;;;;;;;2.30;0.50;;;;;;;14.44;67.64;99735.19;5052492;28;20482;-69
2024/04/02 09:25:35;;;;;;;2.20;0.40;;;;;;;14.42;66.19;99744.84;5053091;28;20426;-69
2024/04/02 09:28:02;;;;;;;2.17;0.40;;;;;;;14.31;63.66;99750.00;5052549;28;20438;-70
2024/04/02 09:30:29;;;;;;;2.17;0.40;;;;;;;14.31;62.94;99758.97;5052214;28;20784;-70
2024/04/02 09:33:03;;;;;;;2.17;0.40;;;;;;;14.31;63.47;99753.50;5052215;28;20535;-70
2024/04/02 09:35:53;;;;;;;2.20;0.40;;;;;;;14.37;62.92;99754.84;5057036;28;20439;-71
2024/04/02 09:38:23;;;;;;;2.30;0.50;;;;;;;14.26;64.51;99734.69;5051126;28;20923;-72
2024/04/02 09:40:51;;;;;;;2.20;0.50;;;;;;;14.20;63.16;99751.59;5055397;28;20521;-70
2024/04/02 09:43:20;;;;;;;2.17;0.40;;;;;;;14.18;62.61;99760.13;5053476;28;20466;-69
2024/04/02 09:45:48;;;;;;;2.10;0.37;;;;;;;14.04;63.42;99749.63;5054645;28;20430;-70
2024/04/02 09:48:16;;;;;;;2.10;0.30;;;;;;;14.00;64.84;99756.09;5055942;28;20442;-70
2024/04/02 09:50:43;;;;;;;2.17;0.40;;;;;;;13.98;64.33;99747.47;5052424;28;20926;-70
2024/04/02 09:53:11;;;;;;;2.20;0.40;;;;;;;13.97;63.67;99757.56;5052877;28;20496;-69
2024/04/02 09:55:39;;;;;;;3.37;0.90;;;;;;;14.06;63.58;99769.13;5052625;28;20429;-69
2024/04/02 09:58:09;;;;;;;2.17;0.30;;;;;;;14.18;62.44;99765.59;5052050;28;20517;-69
2024/04/02 10:00:36;;;;;;;2.70;0.60;;;;;;;14.23;62.58;99759.88;5045134;28;20927;-69
2024/04/02 10:03:06;;;;;;;2.10;0.40;;;;;;;14.21;62.63;99755.91;5056639;28;20458;-69
2024/04/02 10:05:32;;;;;;;2.20;0.47;;;;;;;14.15;62.88;99749.94;5057156;28;20450;-69
2024/04/02 10:07:59;;;;;;;2.10;0.30;;;;;;;14.06;63.39;99754.72;5057054;28;20534;-70
2024/04/02 10:10:28;;;;;;;2.17;0.37;;;;;;;14.11;63.87;99757.19;5056922;28;20448;-70
2024/04/02 10:12:56;;;;;;;2.60;0.60;;;;;;;14.12;64.16;99758.78;5056705;28;20478;-69
2024/04/02 10:15:23;;;;;;;6.40;1.10;;;;;;;14.29;63.39;99763.16;5056559;28;20525;-70
2024/04/02 10:17:58;;;;;;;2.20;0.40;;;;;;;14.46;61.42;99765.59;5056697;28;20937;-69
2024/04/02 10:20:24;;;;;;;2.10;0.30;;;;;;;14.53;61.39;99779.44;5057207;28;20422;-69
2024/04/02 10:22:53;;;;;;;2.20;0.40;;;;;;;14.67;59.89;99765.41;5056383;28;20470;-69
2024/04/02 10:25:19;;;;;;;2.40;0.60;;;;;;;14.77;59.94;99762.19;5057024;28;20444;-70
2024/04/02 10:27:47;;;;;;;2.20;0.40;;;;;;;14.80;58.77;99747.84;5056338;28;20528;-69
2024/04/02 10:30:17;;;;;;;2.13;0.30;;;;;;;14.82;58.95;99751.00;5056716;28;20200;-69
2024/04/02 10:32:46;;;;;;;2.20;0.40;;;;;;;14.77;59.04;99764.13;5056588;28;20481;-69
2024/04/02 10:35:23;;;;;;;2.20;0.50;;;;;;;14.73;59.97;99758.56;5057186;28;20537;-69
2024/04/02 10:37:50;;;;;;;2.20;0.40;;;;;;;14.63;61.43;99776.22;5056842;28;20446;-69
2024/04/02 10:40:17;;;;;;;2.10;0.30;;;;;;;14.65;60.30;99756.78;5056501;28;20442;-69
2024/04/02 10:42:44;;;;;;;2.20;0.50;;;;;;;14.59;60.12;99769.88;5056141;28;20988;-69
2024/04/02 10:45:11;;;;;;;2.10;0.30;;;;;;;14.44;60.38;99778.00;5056719;28;20442;-69
2024/04/02 10:47:46;;;;;;;2.20;0.50;;;;;;;14.34;61.71;99777.34;5056704;28;20442;-69
2024/04/02 10:50:13;;;;;;;2.10;0.30;;;;;;;14.34;62.40;99784.69;5056322;28;20886;-69
2024/04/02 10:52:38;;;;;;;2.10;0.30;;;;;;;14.39;62.29;99787.22;5056099;28;20486;-69
2024/04/02 10:55:06;;;;;;;2.27;0.40;;;;;;;14.44;62.43;99795.13;5056273;28;20530;-70
2024/04/02 10:57:32;;;;;;;2.30;0.47;;;;;;;14.77;61.19;99797.63;5056615;28;20294;-69
2024/04/02 11:00:01;;;;;;;2.10;0.30;;;;;;;14.93;59.10;99778.56;5056108;28;20538;-69
2024/04/02 11:02:27;;;;;;;2.20;0.40;;;;;;;14.91;59.22;99764.47;5056021;28;20511;-70
2024/04/02 11:04:56;;;;;;;2.40;0.40;;;;;;;14.87;59.91;99769.88;5056254;28;20938;-69
2024/04/02 11:07:22;;;;;;;2.27;0.43;;;;;;;14.77;60.72;99777.75;5056333;28;20434;-69
2024/04/02 11:09:49;;;;;;;2.20;0.40;;;;;;;14.73;60.45;99771.41;5055990;28;20442;-69
2024/04/02 11:12:15;;;;;;;4.13;0.47;;;;;;;14.63;58.86;99791.78;5054908;28;20914;-70
2024/04/02 11:14:42;;;;;;;2.10;0.30;;;;;;;14.42;59.97;99778.31;5055686;28;20911;-69
2024/04/02 11:17:08;;;;;;;2.30;0.50;;;;;;;14.36;60.25;99796.84;5055778;28;20441;-70
2024/04/02 11:19:36;;;;;;;2.20;0.40;;;;;;;14.28;61.17;99784.16;5056099;28;20521;-70
2024/04/02 11:25:05;;;;;;;2.33;0.43;;;;;;;14.47;60.83;99791.69;5055487;28;20468;-69
2024/04/02 11:27:32;;;;;;;2.10;0.30;;;;;;;14.55;60.42;99792.72;5055459;28;20484;-69
2024/04/02 11:30:00;;;;;;;2.10;0.30;;;;;;;14.52;60.34;99801.59;5055260;28;20450;-69
2024/04/02 11:32:26;;;;;;;2.37;0.50;;;;;;;14.38;60.81;99796.50;5055281;28;20490;-70
2024/04/02 11:34:58;;;;;;;2.30;0.60;;;;;;;14.34;60.95;99811.94;5055443;28;20504;-69